Airport View

Enter AWOS ICAO identifier for current METAR.

ex. KFNL

KDYA 171055Z AUTO 00000KT 7SM CLR M01/M01 A3007 RMK AO2 T10091009

17 Nov 2019 10:46

Frequency: 119.475

Phone: 334-289-1466

Other Area AWOS: KA08 - KMEI - KTCL - KSEM

TAF KMEI 170530Z 1706/1806 VRB03KT P6SM SKC